Genco Loire — V7GN8 — position and weather

sailwx.info

Track history (hours):
 
Tides and Currents Weather Stations Pressure Air Temp Water Temp Dewpoint Dewpoint Depression Visibility Wind Speed Wind Dir Waves Ship Positions

Genco Loire

Last reported at 2015-Mar-31 02:27 UTC. Time now 2015-Mar-31 03:23 UTC.
Position N 39°03' E 117°46'.

Length 190 m; draft 8.5 m.

MMSI: 538002760.

Date/timePositionNaut miles runAvg speedWind from/ knotsBaromVisibWave heightAir tempDewpointWater temp
2015-Mar-31 02:27N 39°03' E 117°46'0 0.0
2015-Mar-31 01:27N 39°03' E 117°46'0 0.0
2015-Mar-31 00:33N 39°03' E 117°46'0 0.0
2015-Mar-30 23:33N 39°03' E 117°46'0 0.0
2015-Mar-30 22:33N 39°03' E 117°46'0 0.0
2015-Mar-30 21:33N 39°03' E 117°46'0 0.0
2015-Mar-30 20:33N 39°03' E 117°46'0 0.0
2015-Mar-30 19:33N 39°03' E 117°46'0 0.0
2015-Mar-30 18:33N 39°03' E 117°46'0 0.0
2015-Mar-30 17:33N 39°03' E 117°46'0 0.0
2015-Mar-30 16:27N 39°03' E 117°46'0 0.0
2015-Mar-30 15:33N 39°03' E 117°46'0 0.0
2015-Mar-30 14:27N 39°03' E 117°46'0 0.0
2015-Mar-30 13:27N 39°03' E 117°46'0 0.1
2015-Mar-30 12:33N 39°03' E 117°46'0 0.0
2015-Mar-30 11:33N 39°03' E 117°46'0 0.0
2015-Mar-30 10:33N 39°03' E 117°46'0 0.0
2015-Mar-30 05:09N 39°03' E 117°46'0 0.0
2015-Mar-30 03:09N 39°03' E 117°46'0 0.1
2015-Mar-30 02:27N 39°03' E 117°46'0 0.1
2015-Mar-30 01:33N 39°03' E 117°46'0 0.0
2015-Mar-30 00:33N 39°03' E 117°46'0 0.0
2015-Mar-29 23:33N 39°03' E 117°46'0 0.0
2015-Mar-29 22:33N 39°03' E 117°46'0 0.0
2015-Mar-29 21:33N 39°03' E 117°46'0 0.0
2015-Mar-29 20:27N 39°03' E 117°46'0 0.1
2015-Mar-29 19:33N 39°03' E 117°46'0 0.0
2015-Mar-29 18:33N 39°03' E 117°46'0 0.0
2015-Mar-29 17:33N 39°03' E 117°46'0 0.0
2015-Mar-29 16:33N 39°03' E 117°46'0 0.0
2015-Mar-29 15:27N 39°03' E 117°46'0 0.0
2015-Mar-29 14:27N 39°03' E 117°46'0 0.0
2015-Mar-29 13:33N 39°03' E 117°46'0 0.0
2015-Mar-29 12:33N 39°03' E 117°46'0 0.0
2015-Mar-29 11:33N 39°03' E 117°46'6 5.6
2015-Mar-29 10:34N 38°58' E 117°49'10 9.7
2015-Mar-29 09:32N 38°57' E 118°02'9 0.8
2015-Mar-28 22:15N 38°55' E 118°13'  
2015-Mar-26 00:08N 38°55' E 118°14'124 3.2
2015-Mar-24 09:16N 37°39' E 120°19'0 0.0
2015-Mar-23 16:31N 37°40' E 120°19'0 0.0
2015-Mar-23 15:31N 37°39' E 120°19'0 0.0
2015-Mar-23 14:31N 37°39' E 120°19'0 0.0
2015-Mar-23 13:31N 37°39' E 120°19'0 0.0
2015-Mar-23 12:31N 37°39' E 120°19'0 0.0
2015-Mar-23 11:31N 37°39' E 120°19'0 0.0
2015-Mar-23 10:31N 37°39' E 120°19'0 0.0
2015-Mar-23 09:31N 37°40' E 120°19'0 0.0
2015-Mar-23 08:31N 37°39' E 120°19'0 0.0
2015-Mar-23 07:31N 37°39' E 120°19'0 0.0
2015-Mar-23 06:13N 37°39' E 120°19'0 0.0
2015-Mar-23 05:31N 37°39' E 120°19'0 0.0
2015-Mar-23 04:25N 37°39' E 120°19'0 0.0
2015-Mar-23 03:31N 37°40' E 120°19'0 0.0
2015-Mar-23 02:31N 37°40' E 120°19'0 0.0
2015-Mar-23 01:25N 37°39' E 120°19'2 1.8
2015-Mar-23 00:33N 37°39' E 120°17'5 5.0
2015-Mar-22 23:31N 37°38' E 120°11'5 4.9
2015-Mar-22 22:33N 37°42' E 120°07'6 5.2
2015-Mar-22 21:29N 37°46' E 120°02'0 0.1
2015-Mar-22 20:29N 37°46' E 120°02'0 0.1
2015-Mar-22 19:29N 37°46' E 120°02'0 0.0
2015-Mar-22 18:23N 37°46' E 120°02'0 0.0
2015-Mar-22 17:29N 37°46' E 120°02'0 0.0
2015-Mar-22 16:29N 37°46' E 120°02'0 0.0
2015-Mar-22 15:17N 37°46' E 120°02'0 0.0
2015-Mar-22 14:29N 37°46' E 120°02'0 0.0
2015-Mar-22 13:29N 37°46' E 120°02'0 0.0
2015-Mar-22 12:23N 37°46' E 120°02'0 0.0
2015-Mar-22 11:29N 37°46' E 120°02'0 0.2
2015-Mar-22 10:29N 37°46' E 120°02'2 1.8
2015-Mar-22 09:33N 37°47' E 120°00'10 9.3
2015-Mar-22 08:32N 37°53' E 119°51'11 2.5
2015-Mar-22 04:19N 37°60' E 119°41'0 0.0
2015-Mar-21 20:25N 37°60' E 119°41'0 0.1
2015-Mar-21 19:25N 37°60' E 119°41'0 0.0
2015-Mar-21 18:25N 37°60' E 119°41'0 0.0
2015-Mar-21 17:31N 37°60' E 119°41'0 0.0
2015-Mar-21 13:19N 37°60' E 119°41'0 0.0
2015-Mar-21 12:31N 37°60' E 119°41'0 0.0
2015-Mar-21 11:25N 37°60' E 119°41'0 0.0
2015-Mar-21 10:24N 37°60' E 119°41'0 0.0
2015-Mar-21 09:31N 37°60' E 119°41'0 0.0
2015-Mar-21 08:31N 37°60' E 119°41'0 0.0
2015-Mar-21 07:31N 37°60' E 119°41'0 0.0
2015-Mar-21 05:25N 37°60' E 119°41'0 0.1
2015-Mar-21 04:31N 37°60' E 119°41'0 0.0
2015-Mar-21 03:25N 37°60' E 119°41'0 0.0
2015-Mar-21 02:30N 37°60' E 119°41'  
Track history (hours):
 
Tides and Currents Weather Stations Pressure Air Temp Water Temp Dewpoint Dewpoint Depression Visibility Wind Speed Wind Dir Waves Ship Positions

Genco Loire

Last reported at 2015-Mar-31 02:27 UTC. Time now 2015-Mar-31 03:23 UTC.
Position N 39°03' E 117°46'.

Length 190 m; draft 8.5 m.

MMSI: 538002760.

Date/timePositionNaut miles runAvg speedWind from/ knotsBaromVisibWave heightAir tempDewpointWater temp
2015-Mar-31 02:27N 39°03' E 117°46'0 0.0
2015-Mar-31 01:27N 39°03' E 117°46'0 0.0
2015-Mar-31 00:33N 39°03' E 117°46'0 0.0
2015-Mar-30 23:33N 39°03' E 117°46'0 0.0
2015-Mar-30 22:33N 39°03' E 117°46'0 0.0
2015-Mar-30 21:33N 39°03' E 117°46'0 0.0
2015-Mar-30 20:33N 39°03' E 117°46'0 0.0
2015-Mar-30 19:33N 39°03' E 117°46'0 0.0
2015-Mar-30 18:33N 39°03' E 117°46'0 0.0
2015-Mar-30 17:33N 39°03' E 117°46'0 0.0
2015-Mar-30 16:27N 39°03' E 117°46'0 0.0
2015-Mar-30 15:33N 39°03' E 117°46'0 0.0
2015-Mar-30 14:27N 39°03' E 117°46'0 0.0
2015-Mar-30 13:27N 39°03' E 117°46'0 0.1
2015-Mar-30 12:33N 39°03' E 117°46'0 0.0
2015-Mar-30 11:33N 39°03' E 117°46'0 0.0
2015-Mar-30 10:33N 39°03' E 117°46'0 0.0
2015-Mar-30 05:09N 39°03' E 117°46'0 0.0
2015-Mar-30 03:09N 39°03' E 117°46'0 0.1
2015-Mar-30 02:27N 39°03' E 117°46'0 0.1
2015-Mar-30 01:33N 39°03' E 117°46'0 0.0
2015-Mar-30 00:33N 39°03' E 117°46'0 0.0
2015-Mar-29 23:33N 39°03' E 117°46'0 0.0
2015-Mar-29 22:33N 39°03' E 117°46'0 0.0
2015-Mar-29 21:33N 39°03' E 117°46'0 0.0
2015-Mar-29 20:27N 39°03' E 117°46'0 0.1
2015-Mar-29 19:33N 39°03' E 117°46'0 0.0
2015-Mar-29 18:33N 39°03' E 117°46'0 0.0
2015-Mar-29 17:33N 39°03' E 117°46'0 0.0
2015-Mar-29 16:33N 39°03' E 117°46'0 0.0
2015-Mar-29 15:27N 39°03' E 117°46'0 0.0
2015-Mar-29 14:27N 39°03' E 117°46'0 0.0
2015-Mar-29 13:33N 39°03' E 117°46'0 0.0
2015-Mar-29 12:33N 39°03' E 117°46'0 0.0
2015-Mar-29 11:33N 39°03' E 117°46'6 5.6
2015-Mar-29 10:34N 38°58' E 117°49'10 9.7
2015-Mar-29 09:32N 38°57' E 118°02'9 0.8
2015-Mar-28 22:15N 38°55' E 118°13'  
2015-Mar-26 00:08N 38°55' E 118°14'124 3.2
2015-Mar-24 09:16N 37°39' E 120°19'0 0.0
2015-Mar-23 16:31N 37°40' E 120°19'0 0.0
2015-Mar-23 15:31N 37°39' E 120°19'0 0.0
2015-Mar-23 14:31N 37°39' E 120°19'0 0.0
2015-Mar-23 13:31N 37°39' E 120°19'0 0.0
2015-Mar-23 12:31N 37°39' E 120°19'0 0.0
2015-Mar-23 11:31N 37°39' E 120°19'0 0.0
2015-Mar-23 10:31N 37°39' E 120°19'0 0.0
2015-Mar-23 09:31N 37°40' E 120°19'0 0.0
2015-Mar-23 08:31N 37°39' E 120°19'0 0.0
2015-Mar-23 07:31N 37°39' E 120°19'0 0.0
2015-Mar-23 06:13N 37°39' E 120°19'0 0.0
2015-Mar-23 05:31N 37°39' E 120°19'0 0.0
2015-Mar-23 04:25N 37°39' E 120°19'0 0.0
2015-Mar-23 03:31N 37°40' E 120°19'0 0.0
2015-Mar-23 02:31N 37°40' E 120°19'0 0.0
2015-Mar-23 01:25N 37°39' E 120°19'2 1.8
2015-Mar-23 00:33N 37°39' E 120°17'5 5.0
2015-Mar-22 23:31N 37°38' E 120°11'5 4.9
2015-Mar-22 22:33N 37°42' E 120°07'6 5.2
2015-Mar-22 21:29N 37°46' E 120°02'0 0.1
2015-Mar-22 20:29N 37°46' E 120°02'0 0.1
2015-Mar-22 19:29N 37°46' E 120°02'0 0.0
2015-Mar-22 18:23N 37°46' E 120°02'0 0.0
2015-Mar-22 17:29N 37°46' E 120°02'0 0.0
2015-Mar-22 16:29N 37°46' E 120°02'0 0.0
2015-Mar-22 15:17N 37°46' E 120°02'0 0.0
2015-Mar-22 14:29N 37°46' E 120°02'0 0.0
2015-Mar-22 13:29N 37°46' E 120°02'0 0.0
2015-Mar-22 12:23N 37°46' E 120°02'0 0.0
2015-Mar-22 11:29N 37°46' E 120°02'0 0.2
2015-Mar-22 10:29N 37°46' E 120°02'2 1.8
2015-Mar-22 09:33N 37°47' E 120°00'10 9.3
2015-Mar-22 08:32N 37°53' E 119°51'11 2.5
2015-Mar-22 04:19N 37°60' E 119°41'0 0.0
2015-Mar-21 20:25N 37°60' E 119°41'0 0.1
2015-Mar-21 19:25N 37°60' E 119°41'0 0.0
2015-Mar-21 18:25N 37°60' E 119°41'0 0.0
2015-Mar-21 17:31N 37°60' E 119°41'0 0.0
2015-Mar-21 13:19N 37°60' E 119°41'0 0.0
2015-Mar-21 12:31N 37°60' E 119°41'0 0.0
2015-Mar-21 11:25N 37°60' E 119°41'0 0.0
2015-Mar-21 10:24N 37°60' E 119°41'0 0.0
2015-Mar-21 09:31N 37°60' E 119°41'0 0.0
2015-Mar-21 08:31N 37°60' E 119°41'0 0.0
2015-Mar-21 07:31N 37°60' E 119°41'0 0.0
2015-Mar-21 05:25N 37°60' E 119°41'0 0.1
2015-Mar-21 04:31N 37°60' E 119°41'0 0.0
2015-Mar-21 03:25N 37°60' E 119°41'0 0.0
2015-Mar-21 02:30N 37°60' E 119°41'  

Dump ship's entire track history